createdAt,value
2019-01-03T00:00:43.069Z,-0.9
2019-01-03T00:01:33.129Z,-0.8
2019-01-03T00:02:22.377Z,-0.8
2019-01-03T00:03:13.233Z,-0.8
2019-01-03T00:04:03.015Z,-0.8
2019-01-03T00:04:53.135Z,-0.9
2019-01-03T00:05:43.411Z,-0.8
2019-01-03T00:06:33.478Z,-0.8
2019-01-03T00:07:23.520Z,-0.8
2019-01-03T00:08:13.584Z,-0.8
2019-01-03T00:09:03.420Z,-0.8
2019-01-03T00:09:53.148Z,-0.8
2019-01-03T00:10:43.503Z,-0.8
2019-01-03T00:11:33.537Z,-0.8
2019-01-03T00:12:23.585Z,-0.8
2019-01-03T00:13:13.373Z,-0.8
2019-01-03T00:14:03.900Z,-0.8
2019-01-03T00:14:54.052Z,-0.8
2019-01-03T00:33:10.541Z,-0.9
2019-01-03T00:33:59.835Z,-0.8
2019-01-03T00:34:50.369Z,-0.9
2019-01-03T00:35:40.118Z,-0.8
2019-01-03T00:36:30.011Z,-0.8
2019-01-03T00:37:19.773Z,-0.8
2019-01-03T00:38:10.832Z,-0.9
2019-01-03T00:38:59.356Z,-0.8
2019-01-03T00:39:50.698Z,-0.9
2019-01-03T00:40:40.270Z,-0.9
2019-01-03T00:41:30.578Z,-0.8
2019-01-03T00:42:20.119Z,-0.9
2019-01-03T00:43:10.701Z,-0.9
2019-01-03T00:44:00.246Z,-0.9
2019-01-03T00:44:50.276Z,-0.9
2019-01-03T00:45:40.621Z,-0.9
2019-01-03T00:46:30.675Z,-0.9
2019-01-03T00:47:20.739Z,-0.9
2019-01-03T00:48:11.045Z,-0.9
2019-01-03T00:49:00.589Z,-0.9
2019-01-03T00:49:50.363Z,-0.8
2019-01-03T00:50:40.627Z,-0.9
2019-01-03T00:51:31.215Z,-0.9
2019-01-03T00:52:21.525Z,-0.9
2019-01-03T00:53:11.451Z,-0.9
2019-01-03T00:54:00.933Z,-0.9
2019-01-03T00:54:51.727Z,-0.9
2019-01-03T00:55:41.787Z,-0.9
2019-01-03T00:56:31.840Z,-0.9
2019-01-03T00:57:21.412Z,-0.9
2019-01-03T00:58:11.949Z,-0.9
2019-01-03T00:59:01.278Z,-0.9
2019-01-03T00:59:51.515Z,-0.9
2019-01-03T01:00:41.413Z,-0.9
2019-01-03T01:01:31.707Z,-0.9
2019-01-03T01:02:22.844Z,-0.9
2019-01-03T01:03:11.007Z,-0.9
2019-01-03T01:04:01.329Z,-0.9
2019-01-03T01:04:51.384Z,-0.9
2019-01-03T01:05:41.715Z,-0.9
2019-01-03T01:06:32.246Z,-0.9
2019-01-03T01:07:22.366Z,-0.9
2019-01-03T01:08:11.609Z,-0.9
2019-01-03T01:09:02.221Z,-0.9
2019-01-03T01:09:51.726Z,-0.9
2019-01-03T01:10:41.794Z,-0.9
2019-01-03T01:11:32.439Z,-0.9
2019-01-03T01:12:22.972Z,-0.9
2019-01-03T01:13:12.442Z,-0.8
2019-01-03T01:14:02.011Z,-0.8
2019-01-03T01:14:52.353Z,-0.9
2019-01-03T01:15:42.411Z,-0.8
2019-01-03T01:16:33.208Z,-0.9
2019-01-03T01:17:22.516Z,-0.8
2019-01-03T01:18:12.506Z,-0.8
2019-01-03T01:19:02.903Z,-0.8
2019-01-03T01:19:52.976Z,-0.9
2019-01-03T01:20:43.233Z,-0.9
2019-01-03T01:21:32.799Z,-0.9
2019-01-03T01:22:22.861Z,-0.8
2019-01-03T01:23:13.195Z,-0.9
2019-01-03T01:24:03.243Z,-0.8
2019-01-03T01:24:53.323Z,-0.9
2019-01-03T01:25:43.363Z,-0.9
2019-01-03T01:26:33.167Z,-0.9
2019-01-03T01:27:24.198Z,-0.9
2019-01-03T01:28:13.255Z,-0.9
2019-01-03T01:29:03.268Z,-0.9
2019-01-03T01:29:53.649Z,-0.9
2019-01-03T01:30:43.902Z,-0.8
2019-01-03T01:31:34.292Z,-0.8
2019-01-03T01:32:23.555Z,-0.9
2019-01-03T01:33:13.595Z,-0.9
2019-01-03T01:34:03.939Z,-0.9
2019-01-03T01:34:54.005Z,-0.9
2019-01-03T01:35:44.050Z,-0.9
2019-01-03T01:36:34.112Z,-0.9
2019-01-03T01:37:23.897Z,-0.9
2019-01-03T01:38:13.933Z,-0.9
2019-01-03T01:39:04.024Z,-0.8
2019-01-03T01:39:54.817Z,-0.9
2019-01-03T01:40:44.112Z,-0.9
2019-01-03T01:41:34.464Z,-0.9
2019-01-03T01:42:24.507Z,-0.9
2019-01-03T01:43:14.562Z,-0.9
2019-01-03T01:44:04.627Z,-0.9
2019-01-03T01:44:54.707Z,-0.9
2019-01-03T01:45:44.737Z,-0.9
2019-01-03T01:46:34.794Z,-0.9
2019-01-03T01:47:24.888Z,-0.9
2019-01-03T01:48:14.352Z,-0.9
2019-01-03T01:49:04.695Z,-0.9
2019-01-03T01:49:54.724Z,-0.9
2019-01-03T01:50:45.067Z,-0.9
2019-01-03T01:51:34.796Z,-0.9
2019-01-03T01:52:24.919Z,-0.9
2019-01-03T01:54:04.764Z,-0.9
2019-01-03T01:54:55.667Z,-0.9
2019-01-03T01:55:45.895Z,-0.9
2019-01-03T01:56:35.465Z,-0.9
2019-01-03T01:57:25.531Z,-0.9
2019-01-03T01:58:15.318Z,-0.9
2019-01-03T01:59:55.789Z,-0.9
2019-01-03T02:00:45.696Z,-0.9
2019-01-03T02:01:36.076Z,-0.9
2019-01-03T02:02:25.595Z,-0.9
2019-01-03T02:03:15.929Z,-0.9
2019-01-03T02:04:05.996Z,-0.9
2019-01-03T02:04:56.311Z,-0.9
2019-01-03T02:05:45.833Z,-0.9
2019-01-03T02:07:26.205Z,-0.9
2019-01-03T02:09:06.070Z,-0.9
2019-01-03T02:10:46.165Z,-0.9
2019-01-03T02:12:26.285Z,-0.9
2019-01-03T02:28:17.653Z,-1
2019-01-03T02:29:07.699Z,-1
2019-01-03T02:31:37.606Z,-1
2019-01-03T02:33:18.186Z,-1
2019-01-03T02:34:07.737Z,-1
2019-01-03T02:34:58.599Z,-1
2019-01-03T02:35:48.093Z,-1
2019-01-03T02:36:38.732Z,-1
2019-01-03T02:37:28.487Z,-1
2019-01-03T02:38:18.550Z,-1
2019-01-03T02:39:08.069Z,-1
2019-01-03T02:39:58.656Z,-1.1
2019-01-03T02:40:48.771Z,-1
2019-01-03T02:41:38.559Z,-1
2019-01-03T02:42:28.583Z,-1
2019-01-03T02:43:18.921Z,-1.1
2019-01-03T02:44:09.233Z,-1.1
2019-01-03T02:44:58.435Z,-1.1
2019-01-03T02:45:49.116Z,-1.1
2019-01-03T02:46:38.308Z,-1.1
2019-01-03T02:47:29.186Z,-1.1
2019-01-03T02:48:19.242Z,-1.1
2019-01-03T02:49:09.328Z,-1.1
2019-01-03T02:49:58.786Z,-1.1
2019-01-03T02:50:49.673Z,-1.1
2019-01-03T02:51:39.456Z,-1.1
2019-01-03T02:52:29.782Z,-1.1
2019-01-03T02:53:19.373Z,-1.1
2019-01-03T02:54:09.425Z,-1.1
2019-01-03T02:54:59.936Z,-1.1
2019-01-03T02:55:49.276Z,-1.1
2019-01-03T02:56:39.601Z,-1.1
2019-01-03T02:57:29.112Z,-1.1
2019-01-03T02:58:19.162Z,-1.1
2019-01-03T02:59:08.950Z,-1.2
2019-01-03T02:59:59.535Z,-1.2
2019-01-03T03:00:49.607Z,-1.2
2019-01-03T03:01:39.990Z,-1.2
2019-01-03T03:02:29.704Z,-1.2
2019-01-03T03:03:20.274Z,-1.2
2019-01-03T03:04:10.140Z,-1.2
2019-01-03T03:05:00.314Z,-1.2
2019-01-03T03:05:50.149Z,-1.2
2019-01-03T03:06:40.519Z,-1.2
2019-01-03T03:07:30.806Z,-1.2
2019-01-03T03:08:20.591Z,-1.2
2019-01-03T03:09:10.396Z,-1.3
2019-01-03T03:10:00.527Z,-1.2
2019-01-03T03:10:51.301Z,-1.3
2019-01-03T03:11:40.892Z,-1.3
2019-01-03T03:12:30.611Z,-1.2
2019-01-03T03:13:20.691Z,-1.3
2019-01-03T03:14:10.991Z,-1.3
2019-01-03T03:15:00.864Z,-1.3
2019-01-03T03:15:51.710Z,-1.3
2019-01-03T03:16:41.434Z,-1.3
2019-01-03T03:17:30.398Z,-1.3
2019-01-03T03:18:21.362Z,-1.3
2019-01-03T03:19:11.623Z,-1.3
2019-01-03T03:20:01.396Z,-1.3
2019-01-03T03:20:51.201Z,-1.3
2019-01-03T03:21:41.581Z,-1.3
2019-01-03T03:22:31.587Z,-1.3
2019-01-03T03:23:21.647Z,-1.3
2019-01-03T03:24:11.972Z,-1.3
2019-01-03T03:25:02.365Z,-1.3
2019-01-03T03:25:51.530Z,-1.3
2019-01-03T03:26:42.112Z,-1.3
2019-01-03T03:27:32.448Z,-1.3
2019-01-03T03:28:21.742Z,-1.3
2019-01-03T03:29:12.370Z,-1.3
2019-01-03T03:30:01.877Z,-1.3
2019-01-03T03:30:52.173Z,-1.4
2019-01-03T03:31:42.844Z,-1.3
2019-01-03T03:32:32.580Z,-1.3
2019-01-03T03:33:22.385Z,-1.3
2019-01-03T03:34:12.370Z,-1.4
2019-01-03T03:35:02.461Z,-1.4
2019-01-03T03:35:52.235Z,-1.4
2019-01-03T03:36:42.832Z,-1.4
2019-01-03T03:37:32.915Z,-1.4
2019-01-03T03:38:22.668Z,-1.4
2019-01-03T03:39:13.008Z,-1.4
2019-01-03T03:40:02.489Z,-1.4
2019-01-03T03:40:53.160Z,-1.4
2019-01-03T03:41:43.401Z,-1.4
2019-01-03T03:42:33.229Z,-1.4
2019-01-03T03:43:22.733Z,-1.4
2019-01-03T03:44:13.107Z,-1.4
2019-01-03T03:45:03.141Z,-1.4
2019-01-03T03:45:53.459Z,-1.4
2019-01-03T03:46:43.765Z,-1.5
2019-01-03T03:47:33.579Z,-1.5
2019-01-03T03:48:23.366Z,-1.5
2019-01-03T03:49:13.705Z,-1.5
2019-01-03T03:50:03.808Z,-1.5
2019-01-03T03:50:53.239Z,-1.5
2019-01-03T03:51:43.831Z,-1.5
2019-01-03T03:52:33.900Z,-1.5
2019-01-03T03:53:23.421Z,-1.6
2019-01-03T03:54:13.759Z,-1.5
2019-01-03T03:55:04.097Z,-1.5
2019-01-03T03:55:54.166Z,-1.5
2019-01-03T03:56:43.884Z,-1.6
2019-01-03T03:57:34.017Z,-1.6
2019-01-03T03:58:23.782Z,-1.6
2019-01-03T03:59:13.822Z,-1.6
2019-01-03T04:00:04.168Z,-1.6
2019-01-03T04:00:54.199Z,-1.6
2019-01-03T04:01:44.262Z,-1.6
2019-01-03T04:02:34.053Z,-1.6
2019-01-03T04:03:24.367Z,-1.6
2019-01-03T04:04:14.161Z,-1.6
2019-01-03T04:05:04.771Z,-1.6
2019-01-03T04:05:53.983Z,-1.6
2019-01-03T04:06:45.126Z,-1.6
2019-01-03T04:07:34.424Z,-1.6
2019-01-03T04:08:24.990Z,-1.6
2019-01-03T04:09:14.506Z,-1.6
2019-01-03T04:10:04.598Z,-1.6
2019-01-03T04:10:55.163Z,-1.6
2019-01-03T04:11:44.953Z,-1.6
2019-01-03T04:12:34.185Z,-1.6
2019-01-03T04:13:25.089Z,-1.6
2019-01-03T04:14:15.128Z,-1.6
2019-01-03T04:15:05.514Z,-1.6
2019-01-03T04:15:54.970Z,-1.6
2019-01-03T04:16:45.563Z,-1.6
2019-01-03T04:17:35.642Z,-1.6
2019-01-03T04:18:25.757Z,-1.6
2019-01-03T04:19:15.485Z,-1.6
2019-01-03T04:20:05.510Z,-1.6
2019-01-03T04:20:55.918Z,-1.6
2019-01-03T04:21:45.592Z,-1.6
2019-01-03T04:22:35.689Z,-1.6
2019-01-03T04:23:26.002Z,-1.6
2019-01-03T04:24:15.807Z,-1.6
2019-01-03T04:25:05.952Z,-1.6
2019-01-03T04:25:55.917Z,-1.6
2019-01-03T04:26:46.017Z,-1.6
2019-01-03T04:27:35.733Z,-1.6
2019-01-03T04:28:26.086Z,-1.6
2019-01-03T04:29:16.429Z,-1.6
2019-01-03T04:30:05.948Z,-1.6
2019-01-03T04:30:56.312Z,-1.6
2019-01-03T04:31:46.866Z,-1.6
2019-01-03T04:32:36.109Z,-1.6
2019-01-03T04:33:26.444Z,-1.6
2019-01-03T04:34:16.506Z,-1.6
2019-01-03T04:35:06.621Z,-1.6
2019-01-03T04:35:56.918Z,-1.6
2019-01-03T04:36:46.996Z,-1.6
2019-01-03T04:37:37.007Z,-1.6
2019-01-03T04:38:26.761Z,-1.7
2019-01-03T04:39:16.828Z,-1.6
2019-01-03T04:40:06.893Z,-1.6
2019-01-03T04:40:56.945Z,-1.6
2019-01-03T04:41:47.566Z,-1.6
2019-01-03T04:42:36.781Z,-1.6
2019-01-03T04:43:27.410Z,-1.6
2019-01-03T04:44:17.177Z,-1.7
2019-01-03T04:45:07.745Z,-1.7
2019-01-03T05:02:25.991Z,-1.6
2019-01-03T05:03:15.548Z,-1.6
2019-01-03T05:04:05.851Z,-1.6
2019-01-03T05:04:55.603Z,-1.6
2019-01-03T05:05:45.669Z,-1.6
2019-01-03T05:06:35.703Z,-1.6
2019-01-03T05:07:26.051Z,-1.6
2019-01-03T05:08:16.140Z,-1.6
2019-01-03T05:09:05.886Z,-1.6
2019-01-03T05:09:56.238Z,-1.6
2019-01-03T05:10:46.056Z,-1.6
2019-01-03T05:11:36.382Z,-1.6
2019-01-03T05:12:26.123Z,-1.6
2019-01-03T05:13:16.438Z,-1.6
2019-01-03T05:14:06.533Z,-1.6
2019-01-03T05:14:56.273Z,-1.6
2019-01-03T05:15:46.623Z,-1.6
2019-01-03T05:16:36.672Z,-1.6
2019-01-03T05:17:26.177Z,-1.6
2019-01-03T05:18:16.782Z,-1.6
2019-01-03T05:19:06.557Z,-1.6
2019-01-03T05:19:56.625Z,-1.6
2019-01-03T05:20:46.700Z,-1.6
2019-01-03T05:21:37.026Z,-1.6
2019-01-03T05:22:26.803Z,-1.6
2019-01-03T05:23:17.622Z,-1.6
2019-01-03T05:24:07.197Z,-1.6
2019-01-03T05:24:57.286Z,-1.6
2019-01-03T05:25:46.473Z,-1.6
2019-01-03T05:26:37.080Z,-1.6
2019-01-03T05:27:27.420Z,-1.6
2019-01-03T05:28:17.166Z,-1.6
2019-01-03T05:29:07.508Z,-1.6
2019-01-03T05:29:58.667Z,-1.6
2019-01-03T05:30:47.360Z,-1.6
2019-01-03T05:31:37.148Z,-1.6
2019-01-03T05:32:27.469Z,-1.6
2019-01-03T05:33:17.498Z,-1.6
2019-01-03T05:34:08.134Z,-1.6
2019-01-03T05:34:57.669Z,-1.6
2019-01-03T05:35:47.692Z,-1.6
2019-01-03T05:36:38.032Z,-1.6
2019-01-03T05:37:28.074Z,-1.7
2019-01-03T05:38:18.146Z,-1.6
2019-01-03T05:39:08.184Z,-1.6
2019-01-03T05:39:57.723Z,-1.6
2019-01-03T05:40:48.326Z,-1.6
2019-01-03T05:41:38.094Z,-1.7
2019-01-03T05:42:28.459Z,-1.7
2019-01-03T05:43:18.518Z,-1.7
2019-01-03T05:44:09.051Z,-1.7
2019-01-03T05:44:58.580Z,-1.7
2019-01-03T05:45:48.117Z,-1.7
2019-01-03T05:46:38.181Z,-1.7
2019-01-03T05:47:28.518Z,-1.7
2019-01-03T05:48:18.553Z,-1.7
2019-01-03T05:49:08.623Z,-1.7
2019-01-03T05:49:58.951Z,-1.7
2019-01-03T05:50:48.988Z,-1.7
2019-01-03T05:51:38.788Z,-1.7
2019-01-03T05:52:28.573Z,-1.7
2019-01-03T05:53:18.893Z,-1.7
2019-01-03T05:54:09.155Z,-1.8
2019-01-03T05:54:59.289Z,-1.7
2019-01-03T05:55:49.090Z,-1.7
2019-01-03T05:56:39.111Z,-1.7
2019-01-03T05:57:29.170Z,-1.7
2019-01-03T05:58:19.477Z,-1.7
2019-01-03T05:59:09.532Z,-1.7
2019-01-03T05:59:59.632Z,-1.7
2019-01-03T06:00:49.470Z,-1.7
2019-01-03T06:01:39.214Z,-1.7
2019-01-03T06:02:29.519Z,-1.7
2019-01-03T06:03:19.043Z,-1.7
2019-01-03T06:04:09.903Z,-1.7
2019-01-03T06:04:59.956Z,-1.8
2019-01-03T06:05:50.024Z,-1.8
2019-01-03T06:06:39.804Z,-1.7
2019-01-03T06:07:30.121Z,-1.7
2019-01-03T06:08:19.909Z,-1.8
2019-01-03T06:09:10.260Z,-1.8
2019-01-03T06:10:00.287Z,-1.7
2019-01-03T06:10:50.362Z,-1.7
2019-01-03T06:11:40.436Z,-1.7
2019-01-03T06:12:30.490Z,-1.7
2019-01-03T06:13:20.540Z,-1.8
2019-01-03T06:14:10.826Z,-1.7
2019-01-03T06:15:00.106Z,-1.7
2019-01-03T06:15:50.145Z,-1.7
2019-01-03T06:16:40.461Z,-1.7
2019-01-03T06:17:30.795Z,-1.8
2019-01-03T06:18:20.051Z,-1.7
2019-01-03T06:19:10.678Z,-1.7
2019-01-03T06:20:00.972Z,-1.7
2019-01-03T06:20:50.500Z,-1.7
2019-01-03T06:21:40.813Z,-1.7
2019-01-03T06:22:30.594Z,-1.7
2019-01-03T06:23:21.200Z,-1.7
2019-01-03T06:24:10.961Z,-1.6
2019-01-03T06:25:01.310Z,-1.7
2019-01-03T06:25:51.630Z,-1.6
2019-01-03T06:26:41.430Z,-1.6
2019-01-03T06:27:31.205Z,-1.6
2019-01-03T06:28:21.280Z,-1.6
2019-01-03T06:29:11.601Z,-1.6
2019-01-03T06:30:01.665Z,-1.6
2019-01-03T06:30:51.165Z,-1.6
2019-01-03T06:31:41.753Z,-1.6
2019-01-03T06:32:31.548Z,-1.6
2019-01-03T06:33:21.598Z,-1.6
2019-01-03T06:34:11.376Z,-1.6
2019-01-03T06:35:02.156Z,-1.5
2019-01-03T06:35:51.533Z,-1.5
2019-01-03T06:36:41.845Z,-1.5
2019-01-03T06:37:31.088Z,-1.5
2019-01-03T06:38:22.228Z,-1.5
2019-01-03T06:39:12.006Z,-1.5
2019-01-03T06:40:02.118Z,-1.4
2019-01-03T06:40:51.620Z,-1.4
2019-01-03T06:41:42.415Z,-1.4
2019-01-03T06:42:31.940Z,-1.4
2019-01-03T06:43:22.290Z,-1.4
2019-01-03T06:44:12.610Z,-1.4
2019-01-03T06:45:02.993Z,-1.4
2019-01-03T06:45:52.702Z,-1.3
2019-01-03T06:46:42.827Z,-1.3
2019-01-03T06:47:32.557Z,-1.3
2019-01-03T06:48:22.632Z,-1.3
2019-01-03T06:49:12.132Z,-1.3
2019-01-03T06:50:02.537Z,-1.3
2019-01-03T06:50:53.314Z,-1.3
2019-01-03T06:51:42.848Z,-1.2
2019-01-03T06:52:32.649Z,-1.2
2019-01-03T06:53:23.249Z,-1.1
2019-01-03T06:54:13.057Z,-1.1
2019-01-03T06:55:03.061Z,-1.1
2019-01-03T06:55:53.132Z,-1.1
2019-01-03T06:56:43.199Z,-1.1
2019-01-03T06:57:33.502Z,-1.1
2019-01-03T06:58:23.579Z,-1
2019-01-03T06:59:13.181Z,-1
2019-01-03T07:00:03.236Z,-1
2019-01-03T07:02:33.819Z,-0.9
2019-01-03T07:03:23.631Z,-0.9
2019-01-03T07:04:13.963Z,-0.8
2019-01-03T07:05:03.758Z,-0.8
2019-01-03T07:05:53.796Z,-0.8
2019-01-03T07:06:44.391Z,-0.8
2019-01-03T07:07:33.883Z,-0.8
2019-01-03T07:08:23.971Z,-0.7
2019-01-03T07:09:14.595Z,-0.6
2019-01-03T07:10:03.823Z,-0.6
2019-01-03T07:10:53.868Z,-0.6
2019-01-03T07:11:44.155Z,-0.6
2019-01-03T07:12:33.973Z,-0.6
2019-01-03T07:13:24.313Z,-0.5
2019-01-03T07:14:14.375Z,-0.5
2019-01-03T07:15:04.696Z,-0.4
2019-01-03T07:15:54.480Z,-0.4
2019-01-03T07:16:45.305Z,-0.4
2019-01-03T07:17:34.613Z,-0.4
2019-01-03T07:18:24.180Z,-0.3
2019-01-03T07:19:14.243Z,-0.3
2019-01-03T07:20:04.035Z,-0.3
2019-01-03T07:20:54.610Z,-0.2
2019-01-03T07:21:44.630Z,-0.2
2019-01-03T07:22:34.652Z,-0.2
2019-01-03T07:23:24.992Z,-0.1
2019-01-03T07:24:15.055Z,-0.1
2019-01-03T07:25:05.107Z,-0.1
2019-01-03T07:25:55.190Z,-0.1
2019-01-03T07:26:45.269Z,0
2019-01-03T07:27:35.272Z,0.1
2019-01-03T07:28:25.659Z,0.1
2019-01-03T07:29:15.105Z,0.1
2019-01-03T07:30:05.159Z,0.2
2019-01-03T07:30:54.943Z,0.2
2019-01-03T07:31:45.537Z,0.2
2019-01-03T07:32:35.604Z,0.3
2019-01-03T07:33:25.942Z,0.3
2019-01-03T07:34:15.974Z,0.3
2019-01-03T07:35:05.507Z,0.3
2019-01-03T07:35:55.847Z,0.4
2019-01-03T07:36:45.638Z,0.4
2019-01-03T07:37:35.957Z,0.4
2019-01-03T07:38:25.734Z,0.5
2019-01-03T07:39:16.043Z,0.6
2019-01-03T07:40:06.368Z,0.6
2019-01-03T07:40:56.469Z,0.6
2019-01-03T07:41:46.752Z,0.6
2019-01-03T07:42:36.026Z,0.7
2019-01-03T07:43:26.629Z,0.7
2019-01-03T07:44:16.118Z,0.8
2019-01-03T07:45:06.975Z,0.8
2019-01-03T07:45:56.781Z,0.8
2019-01-03T07:46:46.596Z,0.8
2019-01-03T07:47:36.356Z,0.9
2019-01-03T07:48:26.691Z,0.9
2019-01-03T07:49:16.739Z,0.9
2019-01-03T07:50:08.554Z,0.9
2019-01-03T07:50:56.868Z,1
2019-01-03T07:51:47.193Z,1.1
2019-01-03T07:52:36.996Z,1.1
2019-01-03T07:53:27.312Z,1.1
2019-01-03T07:54:16.793Z,1.1
2019-01-03T07:55:07.418Z,1.1
2019-01-03T07:55:57.453Z,1.2
2019-01-03T07:56:46.970Z,1.2
2019-01-03T07:57:36.762Z,1.3
2019-01-03T07:58:27.089Z,1.3
2019-01-03T07:59:17.700Z,1.3
2019-01-03T08:00:07.762Z,1.4
2019-01-03T08:00:57.263Z,1.4
2019-01-03T08:01:47.581Z,1.5
2019-01-03T08:02:37.894Z,1.5
2019-01-03T08:03:27.978Z,1.6
2019-01-03T08:04:18.037Z,1.6
2019-01-03T08:05:07.838Z,1.7
2019-01-03T08:05:57.882Z,1.8
2019-01-03T08:06:47.650Z,1.8
2019-01-03T08:07:38.237Z,1.8
2019-01-03T08:08:28.360Z,1.8
2019-01-03T08:09:17.817Z,1.8
2019-01-03T08:10:08.155Z,1.9
2019-01-03T08:10:57.952Z,1.9
2019-01-03T08:11:47.717Z,2
2019-01-03T08:12:38.614Z,2
2019-01-03T08:13:28.119Z,2.1
2019-01-03T08:14:18.449Z,2.1
2019-01-03T08:15:08.487Z,2.2
2019-01-03T08:15:58.842Z,2.2
2019-01-03T08:16:48.591Z,2.3
2019-01-03T08:17:38.959Z,2.3
2019-01-03T08:18:28.739Z,2.4
2019-01-03T08:19:18.527Z,2.4
2019-01-03T08:20:09.127Z,2.4
2019-01-03T08:20:58.635Z,2.5
2019-01-03T08:21:48.951Z,2.6
2019-01-03T08:22:39.326Z,2.6
2019-01-03T08:23:28.801Z,2.6
2019-01-03T08:24:19.401Z,2.7
2019-01-03T08:25:09.474Z,2.7
2019-01-03T08:25:58.959Z,2.8
2019-01-03T08:26:48.496Z,2.8
2019-01-03T08:27:39.631Z,2.9
2019-01-03T08:28:29.451Z,2.9
2019-01-03T08:29:19.188Z,2.9
2019-01-03T08:30:09.799Z,3.1
2019-01-03T08:30:59.578Z,3.1
2019-01-03T08:31:49.711Z,3.1
2019-01-03T08:32:39.696Z,3.3
2019-01-03T08:33:30.022Z,3.3
2019-01-03T08:34:19.800Z,3.4
2019-01-03T08:35:09.876Z,3.4
2019-01-03T08:35:59.630Z,3.5
2019-01-03T08:36:50.276Z,3.6
2019-01-03T08:37:39.474Z,3.6
2019-01-03T08:38:30.365Z,3.8
2019-01-03T08:39:20.198Z,3.8
2019-01-03T08:40:10.195Z,3.9
2019-01-03T08:41:00.533Z,3.9
2019-01-03T08:41:50.024Z,4.1
2019-01-03T08:42:40.093Z,4.1
2019-01-03T08:43:30.432Z,4.2
2019-01-03T08:44:20.198Z,4.3
2019-01-03T08:45:10.819Z,4.4
2019-01-03T08:46:00.337Z,4.6
2019-01-03T08:46:50.935Z,4.6
2019-01-03T08:47:40.717Z,4.7
2019-01-03T08:48:30.504Z,4.8
2019-01-03T08:49:20.550Z,4.9
2019-01-03T08:50:10.867Z,5
2019-01-03T08:51:01.448Z,5.1
2019-01-03T08:51:50.985Z,5.3
2019-01-03T08:52:41.027Z,5.4
2019-01-03T08:53:31.379Z,5.5
2019-01-03T08:54:21.477Z,5.7
2019-01-03T08:55:10.927Z,5.8
2019-01-03T08:56:01.262Z,5.9
2019-01-03T08:56:51.059Z,6
2019-01-03T08:57:41.709Z,6.1
2019-01-03T08:58:31.972Z,6.3
2019-01-03T08:59:21.756Z,6.4
2019-01-03T09:00:11.832Z,6.4
2019-01-03T09:01:01.617Z,6.6
2019-01-03T09:16:51.350Z,8.5
2019-01-03T09:17:41.108Z,8.6
2019-01-03T09:18:31.450Z,8.8
2019-01-03T09:19:21.810Z,8.8
2019-01-03T09:20:11.547Z,8.9
2019-01-03T09:21:01.875Z,9.1
2019-01-03T09:21:51.630Z,9.2
2019-01-03T09:22:41.888Z,9.3
2019-01-03T09:23:31.763Z,9.4
2019-01-03T09:24:21.814Z,9.5
2019-01-03T09:25:12.148Z,9.6
2019-01-03T09:26:01.927Z,9.7
2019-01-03T09:26:51.720Z,9.8
2019-01-03T09:27:42.025Z,9.9
2019-01-03T09:28:32.392Z,9.9
2019-01-03T09:29:22.425Z,10.1
2019-01-03T09:30:12.485Z,10.1
2019-01-03T09:31:02.272Z,10.3
2019-01-03T09:31:52.648Z,10.4
2019-01-03T09:32:42.646Z,10.5
2019-01-03T09:33:31.876Z,10.6
2019-01-03T09:34:22.233Z,10.7
2019-01-03T09:35:12.546Z,10.8
2019-01-03T09:36:02.115Z,10.8
2019-01-03T09:36:52.913Z,10.9
2019-01-03T09:37:42.722Z,11
2019-01-03T09:38:32.794Z,11.1
2019-01-03T09:39:22.860Z,11.2
2019-01-03T09:40:13.175Z,11.3
2019-01-03T09:41:02.968Z,11.3
2019-01-03T09:41:53.324Z,11.4
2019-01-03T09:42:43.373Z,11.6
2019-01-03T09:43:32.870Z,11.6
2019-01-03T09:44:23.188Z,11.8
2019-01-03T09:45:13.529Z,11.9
2019-01-03T09:46:03.043Z,12
2019-01-03T09:46:53.628Z,12.1
2019-01-03T09:47:43.718Z,12.3
2019-01-03T09:48:33.749Z,12.4
2019-01-03T09:49:23.812Z,12.5
2019-01-03T09:50:13.045Z,12.6
2019-01-03T09:51:03.655Z,12.7
2019-01-03T09:51:53.412Z,12.8
2019-01-03T09:52:44.043Z,12.8
2019-01-03T09:53:34.097Z,12.9
2019-01-03T09:54:23.878Z,13.1
2019-01-03T09:55:14.217Z,13.2
2019-01-03T09:56:03.975Z,13.3
2019-01-03T09:56:54.582Z,13.4
2019-01-03T09:57:43.529Z,13.5
2019-01-03T09:58:34.427Z,13.6
2019-01-03T09:59:24.194Z,13.7
2019-01-03T10:00:14.539Z,13.8
2019-01-03T10:01:04.602Z,13.9
2019-01-03T10:01:54.086Z,13.9
2019-01-03T10:02:44.701Z,14.1
2019-01-03T10:03:35.004Z,14.2
2019-01-03T10:04:24.294Z,14.3
2019-01-03T10:05:14.611Z,14.4
2019-01-03T10:06:04.963Z,14.6
2019-01-03T10:06:54.983Z,14.6
2019-01-03T10:07:45.301Z,14.6
2019-01-03T10:08:35.127Z,14.6
2019-01-03T10:09:24.901Z,14.6
2019-01-03T10:10:14.953Z,14.8
2019-01-03T10:11:05.003Z,14.8
2019-01-03T10:11:54.799Z,14.9
2019-01-03T10:12:45.391Z,14.9
2019-01-03T10:13:35.748Z,14.9
2019-01-03T10:14:24.975Z,14.8
2019-01-03T10:15:15.310Z,14.8
2019-01-03T10:16:05.633Z,14.7
2019-01-03T10:16:54.853Z,14.6
2019-01-03T10:17:45.513Z,14.6
2019-01-03T10:18:35.245Z,14.6
2019-01-03T10:19:25.597Z,14.4
2019-01-03T10:20:15.350Z,14.4
2019-01-03T10:21:05.977Z,14.3
2019-01-03T10:21:55.760Z,14.3
2019-01-03T10:22:45.236Z,14.2
2019-01-03T10:23:35.308Z,14.1
2019-01-03T10:24:25.655Z,14
2019-01-03T10:25:16.267Z,13.9
2019-01-03T10:26:07.082Z,13.9
2019-01-03T10:26:56.385Z,13.8
2019-01-03T10:27:46.398Z,13.8
2019-01-03T10:28:36.498Z,13.7
2019-01-03T10:29:25.977Z,13.6
2019-01-03T10:30:16.605Z,13.6
2019-01-03T10:31:06.372Z,13.6
2019-01-03T10:31:56.149Z,13.5
2019-01-03T10:32:46.447Z,13.4
2019-01-03T10:33:36.527Z,13.4
2019-01-03T10:34:26.610Z,13.4
2019-01-03T10:35:16.668Z,13.4
2019-01-03T10:36:06.987Z,13.3
2019-01-03T10:36:56.759Z,13.3
2019-01-03T10:37:46.567Z,13.3
2019-01-03T10:38:36.934Z,13.3
2019-01-03T10:39:26.929Z,13.2
2019-01-03T10:40:17.262Z,13.2
2019-01-03T10:41:07.067Z,13.3
2019-01-03T10:41:56.839Z,13.2
2019-01-03T10:42:46.894Z,13.1
2019-01-03T10:43:37.473Z,13.1
2019-01-03T10:44:27.574Z,13.1
2019-01-03T10:45:17.326Z,13.1
2019-01-03T10:46:07.674Z,13
2019-01-03T10:46:57.452Z,13
2019-01-03T10:47:47.229Z,13.1
2019-01-03T10:48:37.820Z,13.1
2019-01-03T10:49:27.358Z,13.2
2019-01-03T10:50:17.964Z,13.3
2019-01-03T10:51:08.013Z,13.4
2019-01-03T10:51:57.247Z,13.6
2019-01-03T10:52:47.856Z,13.7
2019-01-03T10:53:37.931Z,13.8
2019-01-03T10:54:28.086Z,14
2019-01-03T10:55:18.023Z,14.3
2019-01-03T10:56:07.851Z,14.4
2019-01-03T10:56:58.418Z,14.6
2019-01-03T10:57:48.470Z,14.9
2019-01-03T10:58:38.305Z,15.1
2019-01-03T10:59:28.578Z,15.4
2019-01-03T11:00:18.360Z,15.8
2019-01-03T11:01:08.420Z,16.1
2019-01-03T11:01:58.743Z,16.4
2019-01-03T11:02:48.253Z,16.6
2019-01-03T11:03:38.582Z,16.9
2019-01-03T11:04:28.375Z,17.1
2019-01-03T11:05:18.421Z,17.3
2019-01-03T11:06:08.533Z,17.4
2019-01-03T11:06:58.812Z,17.6
2019-01-03T11:07:49.157Z,17.8
2019-01-03T11:08:38.655Z,17.9
2019-01-03T11:09:29.518Z,18.1
2019-01-03T11:10:19.342Z,18.1
2019-01-03T11:11:09.102Z,18.2
2019-01-03T11:11:59.155Z,18.2
2019-01-03T11:12:49.532Z,18.1
2019-01-03T11:13:39.269Z,18.1
2019-01-03T11:14:29.049Z,18.1
2019-01-03T11:15:19.388Z,18
2019-01-03T11:16:09.733Z,17.9
2019-01-03T11:16:59.773Z,17.9
2019-01-03T11:17:49.552Z,17.8
2019-01-03T11:18:39.613Z,17.8
2019-01-03T11:19:29.419Z,17.7
2019-01-03T11:20:19.796Z,17.6
2019-01-03T11:21:09.796Z,17.4
2019-01-03T11:22:00.108Z,17.3
2019-01-03T11:22:49.624Z,17.3
2019-01-03T11:23:40.231Z,17.2
2019-01-03T11:24:30.281Z,17.1
2019-01-03T11:25:20.341Z,16.9
2019-01-03T11:26:10.116Z,16.8
2019-01-03T11:27:00.454Z,16.8
2019-01-03T11:27:50.516Z,16.6
2019-01-03T11:28:39.738Z,16.6
2019-01-03T11:29:30.356Z,16.4
2019-01-03T11:30:20.409Z,16.3
2019-01-03T11:31:10.794Z,16.1
2019-01-03T11:32:00.505Z,16.1
2019-01-03T11:32:50.593Z,15.9
2019-01-03T11:33:39.793Z,15.9
2019-01-03T11:34:30.406Z,15.8
2019-01-03T11:35:21.018Z,15.7
2019-01-03T11:36:11.081Z,15.6
2019-01-03T11:37:00.593Z,15.4
2019-01-03T11:37:51.213Z,15.3
2019-01-03T11:38:41.245Z,15.3
2019-01-03T11:39:31.035Z,15.2
2019-01-03T11:40:21.126Z,15.1
2019-01-03T11:41:11.200Z,14.9
2019-01-03T11:42:01.221Z,14.8
2019-01-03T11:42:51.268Z,14.8
2019-01-03T11:43:41.583Z,14.6
2019-01-03T11:44:31.657Z,14.5
2019-01-03T11:45:21.158Z,14.3
2019-01-03T11:46:11.493Z,14.3
2019-01-03T11:47:01.272Z,14.2
2019-01-03T11:47:51.363Z,14.1
2019-01-03T11:48:41.672Z,14.1
2019-01-03T11:49:31.711Z,13.9
2019-01-03T11:50:21.787Z,13.8
2019-01-03T11:51:12.369Z,13.7
2019-01-03T11:52:01.612Z,13.6
2019-01-03T11:52:51.950Z,13.5
2019-01-03T11:53:42.290Z,13.4
2019-01-03T11:54:31.778Z,13.3
2019-01-03T11:55:22.144Z,13.1
2019-01-03T11:56:11.950Z,13
2019-01-03T11:57:01.685Z,12.9
2019-01-03T11:57:52.595Z,12.8
2019-01-03T11:58:42.617Z,12.7
2019-01-03T11:59:31.861Z,12.6
2019-01-03T12:00:22.459Z,12.6
2019-01-03T12:01:12.781Z,12.5
2019-01-03T12:02:02.564Z,12.4
2019-01-03T12:02:52.620Z,12.3
2019-01-03T12:03:42.961Z,12.1
2019-01-03T12:04:33.022Z,12
2019-01-03T12:05:23.086Z,11.9
2019-01-03T12:06:12.631Z,11.8
2019-01-03T12:07:03.184Z,11.7
2019-01-03T12:07:52.982Z,11.6
2019-01-03T12:08:43.318Z,11.5
2019-01-03T12:09:33.103Z,11.4
2019-01-03T12:10:23.154Z,11.3
2019-01-03T12:11:13.458Z,11.2
2019-01-03T12:12:03.543Z,11.1
2019-01-03T12:12:53.577Z,11.1
2019-01-03T12:13:43.668Z,10.9
2019-01-03T12:14:33.438Z,10.9
2019-01-03T12:15:23.479Z,10.8
2019-01-03T12:16:13.821Z,10.7
2019-01-03T12:17:03.313Z,10.6
2019-01-03T12:17:53.376Z,10.6
2019-01-03T12:18:43.985Z,10.5
2019-01-03T12:19:33.788Z,10.4
2019-01-03T12:20:23.555Z,10.3
2019-01-03T12:21:13.888Z,10.3
2019-01-03T12:22:04.245Z,10.2
2019-01-03T12:22:54.257Z,10.1
2019-01-03T12:23:44.055Z,9.9
2019-01-03T12:24:34.415Z,9.9
2019-01-03T12:25:24.270Z,9.8